Time;durP1;ratioP1;P1;durP2;ratioP2;P2;SDS_P1;SDS_P2;PMS_P1;PMS_P2;Temp;Humidity;BMP_temperature;BMP_pressure;BME280_temperature;BME280_humidity;BME280_pressure;Samples;Min_cycle;Max_cycle;Signal;HPM_P1;HPM_P2
2022/09/06 00:01:14;;;;;;;6.57;5.50;;;28.40;38.60;;;;;;4984390;28;20497;-82
2022/09/06 00:03:44;;;;;;;6.47;5.97;;;28.40;38.90;;;;;;4987017;28;20458;-82
2022/09/06 00:06:19;;;;;;;7.20;6.60;;;28.50;38.60;;;;;;4982675;28;20553;-82
2022/09/06 00:08:47;;;;;;;8.10;7.03;;;28.30;38.60;;;;;;4982335;28;20473;-82
2022/09/06 00:11:16;;;;;;;6.70;6.20;;;28.30;38.60;;;;;;4982063;28;20466;-82
2022/09/06 00:13:44;;;;;;;6.13;5.60;;;28.20;38.80;;;;;;4982212;28;20453;-82
2022/09/06 00:16:13;;;;;;;7.30;5.40;;;28.30;38.80;;;;;;4980785;28;20476;-81
2022/09/06 00:18:41;;;;;;;6.40;5.30;;;28.20;38.70;;;;;;4984359;28;20453;-81
2022/09/06 00:21:18;;;;;;;5.07;4.60;;;28.20;38.70;;;;;;4981156;28;20533;-82
2022/09/06 00:23:45;;;;;;;5.43;4.70;;;28.10;38.90;;;;;;4981240;28;20447;-82
2022/09/06 00:26:13;;;;;;;5.10;4.80;;;28.10;38.90;;;;;;4981888;28;20489;-83
2022/09/06 00:28:41;;;;;;;5.50;5.00;;;28.20;38.80;;;;;;4982535;28;20511;-83
2022/09/06 00:31:10;;;;;;;7.70;6.87;;;28.20;38.80;;;;;;4981320;28;20533;-82
2022/09/06 00:33:38;;;;;;;6.70;6.10;;;28.10;38.80;;;;;;4989766;28;20482;-82
2022/09/06 00:36:07;;;;;;;7.17;6.30;;;28.10;38.80;;;;;;4981284;28;20466;-82
2022/09/06 00:38:36;;;;;;;7.90;6.33;;;28.10;38.70;;;;;;4981714;28;20445;-82
2022/09/06 00:41:04;;;;;;;6.30;5.70;;;28.00;38.80;;;;;;4980863;28;20426;-82
2022/09/06 00:43:32;;;;;;;6.10;5.50;;;28.00;39.10;;;;;;4981739;28;20482;-82
2022/09/06 00:46:00;;;;;;;12.93;6.83;;;27.90;38.80;;;;;;4981176;28;21060;-82
2022/09/06 00:48:29;;;;;;;19.87;7.77;;;27.90;39.10;;;;;;4980652;28;20442;-82
2022/09/06 00:50:58;;;;;;;12.77;9.07;;;27.80;39.10;;;;;;4988873;28;20467;-82
2022/09/06 00:53:26;;;;;;;10.33;7.67;;;27.80;39.20;;;;;;4998289;28;20501;-82
2022/09/06 00:55:56;;;;;;;8.50;7.60;;;27.80;39.40;;;;;;5000397;28;20944;-82
2022/09/06 00:58:25;;;;;;;9.97;8.70;;;27.90;39.40;;;;;;5001147;28;20708;-82
2022/09/06 01:00:53;;;;;;;11.10;7.77;;;27.90;39.30;;;;;;5000352;28;20469;-82
2022/09/06 01:03:21;;;;;;;8.53;7.40;;;27.90;39.10;;;;;;5000377;28;20474;-82
2022/09/06 01:05:53;;;;;;;8.20;7.40;;;27.80;39.00;;;;;;4999854;28;20947;-82
2022/09/06 01:08:25;;;;;;;10.43;7.00;;;27.80;39.30;;;;;;4992104;28;20439;-82
2022/09/06 01:11:10;;;;;;;7.07;6.47;;;27.90;39.40;;;;;;4982013;28;20477;-82
2022/09/06 01:13:43;;;;;;;8.77;7.00;;;27.90;39.30;;;;;;4981232;28;20492;-82
2022/09/06 01:16:13;;;;;;;10.37;9.00;;;27.90;39.10;;;;;;4984234;28;20490;-83
2022/09/06 01:18:57;;;;;;;11.37;7.80;;;27.90;39.40;;;;;;4979759;28;20442;-84
2022/09/06 01:21:32;;;;;;;10.73;7.30;;;27.80;39.20;;;;;;4978943;28;20446;-84
2022/09/06 01:24:24;;;;;;;8.47;7.60;;;27.70;39.30;;;;;;4985910;28;20519;-84
2022/09/06 01:27:21;;;;;;;8.60;6.03;;;27.70;39.40;;;;;;4983315;28;20506;-83
2022/09/06 01:29:50;;;;;;;8.13;6.27;;;27.70;39.60;;;;;;4974218;28;20494;-84
2022/09/06 01:32:22;;;;;;;7.17;6.07;;;27.70;39.50;;;;;;4981581;28;20522;-83
2022/09/06 01:34:52;;;;;;;5.47;4.97;;;27.80;39.50;;;;;;4984795;28;20444;-84
2022/09/06 01:37:20;;;;;;;8.43;5.47;;;27.70;39.50;;;;;;4983457;28;20427;-84
2022/09/06 01:39:48;;;;;;;7.67;5.90;;;27.60;39.70;;;;;;4981912;28;20470;-84
2022/09/06 01:42:18;;;;;;;8.97;6.13;;;27.60;39.70;;;;;;4987009;28;20393;-84
2022/09/06 01:44:47;;;;;;;7.70;6.70;;;27.40;40.00;;;;;;4984681;28;20531;-83
2022/09/06 01:47:22;;;;;;;6.23;5.73;;;27.50;40.10;;;;;;4973733;28;20446;-83
2022/09/06 01:49:58;;;;;;;8.77;6.90;;;27.50;40.00;;;;;;4973873;28;20447;-83
2022/09/06 01:52:29;;;;;;;7.90;6.77;;;27.50;40.00;;;;;;4973807;28;20463;-83
2022/09/06 01:55:05;;;;;;;8.63;6.67;;;27.50;39.80;;;;;;4972958;28;20476;-83
2022/09/06 01:57:41;;;;;;;9.03;7.10;;;27.50;39.90;;;;;;4974552;28;20427;-83
2022/09/06 02:00:10;;;;;;;7.33;6.63;;;27.50;40.00;;;;;;4975434;28;20434;-82
2022/09/06 02:02:47;;;;;;;6.50;5.90;;;27.50;40.20;;;;;;4979446;28;20529;-83
2022/09/06 02:05:18;;;;;;;11.13;6.60;;;27.30;40.30;;;;;;4984526;28;20472;-83
2022/09/06 02:07:46;;;;;;;8.70;6.67;;;27.40;40.30;;;;;;4985130;28;20482;-83
2022/09/06 02:10:16;;;;;;;10.00;7.20;;;27.40;40.00;;;;;;4985155;28;20483;-84
2022/09/06 02:12:45;;;;;;;8.70;6.77;;;27.40;40.20;;;;;;4983916;28;20496;-84
2022/09/06 02:15:15;;;;;;;9.60;6.90;;;27.40;40.00;;;;;;4995453;28;20461;-83
2022/09/06 02:17:47;;;;;;;7.00;6.40;;;27.40;40.10;;;;;;4981340;28;20479;-83
2022/09/06 02:20:16;;;;;;;7.53;6.00;;;27.50;40.20;;;;;;4980989;28;20436;-83
2022/09/06 02:22:44;;;;;;;6.40;5.80;;;27.40;40.00;;;;;;4979677;28;20448;-84
2022/09/06 02:25:15;;;;;;;8.13;6.10;;;27.40;40.00;;;;;;4981854;28;20468;-84
2022/09/06 02:27:42;;;;;;;7.00;6.30;;;27.30;40.30;;;;;;4982010;28;20428;-84
2022/09/06 02:30:11;;;;;;;7.57;5.97;;;27.30;40.30;;;;;;4979780;28;20556;-83
2022/09/06 02:32:42;;;;;;;7.77;6.10;;;27.30;40.40;;;;;;4990830;28;20891;-83
2022/09/06 02:35:12;;;;;;;6.10;5.53;;;27.30;40.40;;;;;;4999059;28;20487;-83
2022/09/06 02:37:41;;;;;;;7.00;5.60;;;27.30;40.40;;;;;;4998615;28;20450;-83
2022/09/06 02:40:10;;;;;;;8.33;7.53;;;27.30;40.20;;;;;;4999477;28;20480;-84
2022/09/06 02:42:39;;;;;;;11.93;7.90;;;27.20;40.50;;;;;;5001600;28;20453;-83
2022/09/06 02:45:07;;;;;;;7.37;6.67;;;27.10;40.50;;;;;;4998063;28;20499;-83
2022/09/06 02:47:35;;;;;;;7.40;6.70;;;27.10;40.80;;;;;;4996392;28;20549;-83
2022/09/06 02:50:03;;;;;;;6.90;6.37;;;27.10;40.70;;;;;;4994660;28;20859;-83
2022/09/06 02:52:33;;;;;;;7.27;6.57;;;27.10;40.60;;;;;;5001628;28;20420;-83
2022/09/06 02:55:01;;;;;;;7.77;6.77;;;27.10;40.80;;;;;;5002439;28;20474;-83
2022/09/06 02:57:29;;;;;;;6.67;6.17;;;27.10;40.70;;;;;;5002635;28;20481;-83
2022/09/06 02:59:57;;;;;;;6.50;5.83;;;27.00;40.70;;;;;;5002644;28;20454;-82
2022/09/06 03:02:25;;;;;;;6.93;6.27;;;27.10;40.80;;;;;;4993148;28;20520;-82
2022/09/06 03:04:53;;;;;;;7.17;6.53;;;27.00;40.80;;;;;;4992669;28;20870;-82
2022/09/06 03:07:21;;;;;;;6.40;5.90;;;27.00;40.90;;;;;;5002288;28;20532;-82
2022/09/06 03:09:50;;;;;;;6.30;5.70;;;27.00;40.90;;;;;;5002815;28;20457;-83
2022/09/06 03:12:18;;;;;;;7.00;6.30;;;26.90;41.10;;;;;;5004999;28;21065;-83
2022/09/06 03:14:46;;;;;;;6.27;5.77;;;27.00;41.10;;;;;;5000752;28;20556;-83
2022/09/06 03:17:18;;;;;;;6.73;6.00;;;27.00;41.10;;;;;;4997610;28;20520;-83
2022/09/06 03:19:46;;;;;;;9.33;7.20;;;26.90;41.20;;;;;;4989037;28;20474;-83
2022/09/06 03:22:14;;;;;;;11.77;10.57;;;26.90;41.00;;;;;;4980843;28;20480;-82
2022/09/06 03:24:42;;;;;;;10.00;9.00;;;26.90;41.30;;;;;;4982909;28;20420;-82
2022/09/06 03:27:12;;;;;;;7.83;7.20;;;27.00;41.20;;;;;;4982255;28;20501;-82
2022/09/06 03:29:40;;;;;;;13.67;6.70;;;26.90;41.20;;;;;;4981925;28;20420;-83
2022/09/06 03:32:08;;;;;;;6.93;6.23;;;26.90;41.20;;;;;;4981234;28;20488;-83
2022/09/06 03:34:36;;;;;;;7.93;6.87;;;26.90;41.20;;;;;;4992589;28;20490;-82
2022/09/06 03:37:04;;;;;;;6.53;6.03;;;26.90;41.20;;;;;;5003094;28;20522;-83
2022/09/06 03:39:32;;;;;;;7.80;6.47;;;27.00;41.10;;;;;;5001999;28;20499;-83
2022/09/06 03:42:00;;;;;;;8.20;6.83;;;26.90;41.10;;;;;;5002318;28;20441;-83
2022/09/06 03:44:31;;;;;;;7.93;6.20;;;26.90;41.40;;;;;;5004085;28;20472;-83
2022/09/06 03:46:59;;;;;;;6.43;5.90;;;26.90;41.30;;;;;;5005272;28;20861;-83
2022/09/06 03:49:27;;;;;;;6.53;6.13;;;26.90;41.40;;;;;;4999287;28;20460;-83
2022/09/06 03:51:55;;;;;;;6.40;5.90;;;26.90;41.40;;;;;;4998830;28;20459;-84
2022/09/06 03:54:23;;;;;;;6.77;6.17;;;26.90;41.40;;;;;;5006360;28;20483;-83
2022/09/06 03:56:51;;;;;;;6.80;6.30;;;27.00;41.60;;;;;;5006075;28;20403;-82
2022/09/06 03:59:25;;;;;;;6.43;5.93;;;27.00;41.40;;;;;;5006002;28;20461;-82
2022/09/06 04:01:54;;;;;;;6.43;5.93;;;26.90;41.30;;;;;;5003075;28;20443;-82
2022/09/06 04:04:22;;;;;;;6.33;5.93;;;26.90;41.30;;;;;;5002034;28;20918;-82
2022/09/06 04:06:50;;;;;;;7.70;6.60;;;26.90;41.40;;;;;;4996352;28;20459;-82
2022/09/06 04:09:18;;;;;;;6.93;6.30;;;26.90;41.70;;;;;;4991277;28;20503;-82
2022/09/06 04:11:46;;;;;;;6.43;5.93;;;26.90;41.70;;;;;;4981901;28;20445;-82
2022/09/06 04:14:14;;;;;;;6.50;6.00;;;26.90;41.50;;;;;;4981718;28;20958;-82
2022/09/06 04:16:42;;;;;;;6.67;6.10;;;26.90;41.50;;;;;;4981314;28;20480;-82
2022/09/06 04:19:11;;;;;;;6.40;5.80;;;26.90;41.40;;;;;;4982480;28;20456;-82
2022/09/06 04:21:39;;;;;;;6.70;6.20;;;26.90;41.50;;;;;;4980958;28;20421;-82
2022/09/06 04:24:08;;;;;;;6.93;6.23;;;26.90;41.50;;;;;;4987917;28;20457;-82
2022/09/06 04:26:36;;;;;;;6.37;5.97;;;27.00;41.50;;;;;;4993319;28;20467;-82
2022/09/06 04:29:04;;;;;;;6.77;6.17;;;27.00;41.30;;;;;;5001551;28;20449;-83
2022/09/06 04:31:34;;;;;;;7.70;6.13;;;26.90;41.70;;;;;;5001093;28;20455;-83
2022/09/06 04:34:02;;;;;;;6.50;6.00;;;26.90;41.30;;;;;;5001061;28;20426;-83
2022/09/06 04:36:31;;;;;;;6.83;6.13;;;26.90;41.40;;;;;;5000051;28;20447;-82
2022/09/06 04:38:59;;;;;;;7.37;6.00;;;26.90;41.40;;;;;;5000553;28;20866;-83
2022/09/06 04:41:27;;;;;;;6.00;5.60;;;26.80;41.40;;;;;;4999064;28;20433;-83
2022/09/06 04:43:55;;;;;;;6.90;6.20;;;26.80;41.50;;;;;;4995138;28;20540;-83
2022/09/06 04:46:26;;;;;;;6.90;6.30;;;26.80;41.80;;;;;;5003239;28;20464;-83
2022/09/06 04:48:54;;;;;;;6.13;5.63;;;26.80;41.60;;;;;;5001025;28;20540;-83
2022/09/06 04:51:22;;;;;;;11.10;6.40;;;26.70;41.70;;;;;;5001500;28;20503;-83
2022/09/06 04:53:52;;;;;;;6.47;5.97;;;26.80;41.60;;;;;;5012378;28;20420;-82
2022/09/06 04:56:20;;;;;;;6.90;6.40;;;26.80;41.90;;;;;;4994342;28;20480;-83
2022/09/06 04:58:48;;;;;;;6.37;5.87;;;26.80;41.60;;;;;;4989225;28;20507;-83
2022/09/06 05:01:16;;;;;;;6.00;5.50;;;26.80;41.50;;;;;;4980761;28;20440;-83
2022/09/06 05:03:44;;;;;;;8.47;5.77;;;26.70;41.50;;;;;;4978335;28;20413;-83
2022/09/06 05:06:13;;;;;;;7.33;6.60;;;26.60;41.70;;;;;;4983889;28;20461;-83
2022/09/06 05:08:44;;;;;;;7.70;7.00;;;26.60;41.40;;;;;;4981932;28;20459;-83
2022/09/06 05:11:14;;;;;;;7.30;6.60;;;26.20;42.10;;;;;;4981270;28;20454;-83
2022/09/06 05:13:42;;;;;;;7.00;6.37;;;26.00;42.50;;;;;;4981017;28;20478;-83
2022/09/06 05:16:10;;;;;;;9.43;6.77;;;25.60;44.40;;;;;;4987821;28;20493;-83
2022/09/06 05:18:38;;;;;;;8.43;6.53;;;25.90;44.00;;;;;;4999288;28;20492;-83
2022/09/06 05:21:06;;;;;;;7.17;6.57;;;26.20;43.10;;;;;;4999719;28;20454;-84
2022/09/06 05:23:34;;;;;;;8.63;6.67;;;26.30;42.50;;;;;;5001148;28;20412;-82
2022/09/06 05:26:03;;;;;;;6.60;6.10;;;26.40;42.50;;;;;;5000048;28;20491;-83
2022/09/06 05:28:33;;;;;;;6.83;6.30;;;26.30;42.20;;;;;;5002241;28;20529;-83
2022/09/06 05:31:08;;;;;;;7.00;6.40;;;26.30;42.40;;;;;;4990981;28;20485;-84
2022/09/06 05:33:36;;;;;;;7.50;6.47;;;26.20;42.20;;;;;;4986676;28;20476;-83
2022/09/06 05:36:04;;;;;;;6.47;5.93;;;26.30;42.20;;;;;;4977882;28;20448;-84
2022/09/06 05:38:32;;;;;;;6.37;5.87;;;26.40;42.50;;;;;;4977117;28;20512;-84
2022/09/06 05:41:01;;;;;;;10.00;9.00;;;26.40;41.90;;;;;;4979108;28;20446;-84
2022/09/06 05:43:29;;;;;;;9.80;7.47;;;26.40;42.00;;;;;;4977249;28;20466;-83
2022/09/06 05:45:58;;;;;;;7.93;7.10;;;26.40;42.00;;;;;;4978276;28;20470;-82
2022/09/06 05:48:26;;;;;;;8.63;7.10;;;26.40;42.80;;;;;;4983756;28;20427;-81
2022/09/06 05:51:01;;;;;;;16.70;6.60;;;26.50;43.00;;;;;;4986466;28;20489;-82
2022/09/06 05:53:34;;;;;;;7.40;6.70;;;26.70;42.30;;;;;;4979594;28;20544;-82
2022/09/06 05:56:02;;;;;;;7.00;6.40;;;26.90;41.90;;;;;;4980237;28;20474;-82
2022/09/06 05:58:30;;;;;;;6.90;6.40;;;26.90;41.60;;;;;;4975126;28;20501;-82
2022/09/06 06:01:06;;;;;;;7.57;6.63;;;27.10;41.60;;;;;;4978763;28;20499;-82
2022/09/06 06:03:35;;;;;;;8.93;6.80;;;27.20;41.40;;;;;;4979809;28;20581;-82
2022/09/06 06:06:03;;;;;;;9.20;6.00;;;27.20;41.30;;;;;;4987639;28;20487;-82
2022/09/06 06:08:31;;;;;;;6.87;6.10;;;27.20;41.30;;;;;;4998088;28;20468;-83
2022/09/06 06:11:00;;;;;;;6.53;5.93;;;27.30;41.30;;;;;;4999304;28;20513;-82
2022/09/06 06:13:28;;;;;;;7.10;6.00;;;27.30;41.30;;;;;;4998674;28;20497;-82
2022/09/06 06:15:56;;;;;;;6.20;5.80;;;27.30;41.20;;;;;;4998442;28;20494;-81
2022/09/06 06:18:26;;;;;;;9.37;5.97;;;27.40;41.30;;;;;;4998493;28;20452;-80
2022/09/06 06:21:10;;;;;;;6.77;6.27;;;27.30;41.30;;;;;;4998306;28;20491;-81
2022/09/06 06:23:38;;;;;;;7.03;6.43;;;27.40;41.50;;;;;;4991169;28;20432;-81
2022/09/06 06:26:06;;;;;;;7.40;6.27;;;27.30;41.60;;;;;;4984657;28;20429;-83
2022/09/06 06:28:35;;;;;;;6.47;5.97;;;27.40;41.70;;;;;;4979763;28;20454;-83
2022/09/06 06:31:03;;;;;;;8.43;6.20;;;27.40;41.60;;;;;;4979820;28;20488;-82
2022/09/06 06:33:35;;;;;;;6.40;5.90;;;27.40;41.70;;;;;;4979083;28;20480;-82
2022/09/06 06:36:04;;;;;;;6.53;5.93;;;27.40;41.60;;;;;;4983489;28;20499;-82
2022/09/06 06:38:32;;;;;;;7.40;6.13;;;27.40;41.80;;;;;;5002681;28;20443;-81
2022/09/06 06:41:00;;;;;;;6.47;5.97;;;27.40;41.80;;;;;;5005704;28;20461;-82
2022/09/06 06:43:36;;;;;;;6.87;6.27;;;27.40;41.90;;;;;;4981174;28;20537;-82
2022/09/06 06:46:05;;;;;;;10.10;6.40;;;27.40;41.90;;;;;;4980212;28;21056;-82
2022/09/06 06:48:35;;;;;;;6.73;6.10;;;27.50;42.10;;;;;;4979774;28;20452;-83
2022/09/06 06:51:03;;;;;;;6.63;6.00;;;27.50;42.10;;;;;;4981095;28;20429;-82
2022/09/06 06:53:31;;;;;;;6.57;6.00;;;27.50;42.00;;;;;;4980937;28;20500;-83
2022/09/06 06:55:59;;;;;;;8.43;6.63;;;27.50;42.10;;;;;;4983477;28;20474;-83
2022/09/06 06:58:27;;;;;;;6.40;5.90;;;27.50;42.00;;;;;;4990943;28;20441;-83
2022/09/06 07:00:56;;;;;;;6.33;5.80;;;27.60;42.00;;;;;;4980635;28;20454;-83
2022/09/06 07:03:24;;;;;;;5.93;5.43;;;27.60;42.00;;;;;;4980533;28;20421;-83
2022/09/06 07:05:53;;;;;;;6.60;6.00;;;27.60;41.80;;;;;;4982309;28;20505;-83
2022/09/06 07:08:37;;;;;;;6.87;6.13;;;27.70;41.80;;;;;;4981552;28;20457;-83
2022/09/06 07:11:05;;;;;;;6.63;5.93;;;27.70;41.80;;;;;;4980708;28;20470;-83
2022/09/06 07:13:33;;;;;;;7.73;5.63;;;27.80;41.80;;;;;;4980594;28;20894;-83
2022/09/06 07:16:09;;;;;;;6.57;5.97;;;27.80;41.70;;;;;;4985940;28;20519;-83
2022/09/06 07:18:40;;;;;;;6.53;5.93;;;27.80;41.70;;;;;;4978316;28;20427;-82
2022/09/06 07:21:14;;;;;;;7.40;5.30;;;27.90;41.80;;;;;;4976694;28;20453;-82
2022/09/06 07:24:02;;;;;;;5.90;5.40;;;27.90;41.70;;;;;;4975533;28;20925;-83
2022/09/06 07:26:31;;;;;;;6.77;5.63;;;27.90;41.70;;;;;;4976081;28;20536;-83
2022/09/06 07:29:00;;;;;;;6.77;6.03;;;28.00;41.70;;;;;;4974503;28;20464;-83
2022/09/06 07:31:28;;;;;;;5.90;5.40;;;28.10;41.60;;;;;;4991241;28;21020;-83
2022/09/06 07:34:17;;;;;;;7.30;5.47;;;28.10;41.60;;;;;;4978469;28;20470;-83
2022/09/06 07:36:47;;;;;;;6.73;5.63;;;28.10;41.70;;;;;;4978733;28;20489;-83
2022/09/06 07:39:15;;;;;;;5.90;5.50;;;28.10;41.50;;;;;;4993596;28;20848;-83
2022/09/06 07:41:43;;;;;;;5.37;4.87;;;28.20;41.60;;;;;;5009603;28;20475;-83
2022/09/06 07:44:14;;;;;;;5.60;5.10;;;28.20;41.60;;;;;;5019009;28;21018;-83
2022/09/06 07:46:42;;;;;;;6.03;4.97;;;28.20;41.40;;;;;;5012300;28;20484;-83
2022/09/06 07:49:10;;;;;;;5.53;5.13;;;28.30;41.40;;;;;;4993329;28;20518;-84
2022/09/06 07:51:38;;;;;;;5.83;5.23;;;28.40;41.50;;;;;;4986139;28;20462;-80
2022/09/06 07:54:08;;;;;;;9.70;6.00;;;28.40;41.50;;;;;;4991138;28;20474;-81
2022/09/06 07:56:56;;;;;;;8.20;4.80;;;28.40;41.50;;;;;;4995557;28;20505;-80
2022/09/06 07:59:24;;;;;;;6.47;5.30;;;28.50;41.70;;;;;;5001307;28;20819;-80
2022/09/06 08:01:52;;;;;;;5.90;5.40;;;28.50;41.70;;;;;;4986403;28;20470;-80
2022/09/06 08:04:19;;;;;;;7.03;6.00;;;28.50;41.70;;;;;;4988105;28;20466;-81
2022/09/06 08:06:50;;;;;;;5.80;5.30;;;28.60;41.80;;;;;;4993959;28;20466;-81
2022/09/06 08:09:40;;;;;;;4.87;4.47;;;28.60;41.80;;;;;;4990788;28;20433;-81
2022/09/06 08:12:08;;;;;;;6.73;5.87;;;28.70;42.00;;;;;;5006044;28;20437;-81
2022/09/06 08:14:36;;;;;;;5.47;4.83;;;28.70;42.00;;;;;;4999981;28;20555;-81
2022/09/06 08:17:04;;;;;;;9.17;5.30;;;28.70;42.10;;;;;;4990138;28;20484;-81
2022/09/06 08:19:33;;;;;;;9.73;5.77;;;28.70;42.20;;;;;;5000368;28;20446;-81
2022/09/06 08:22:01;;;;;;;8.20;5.07;;;28.70;42.20;;;;;;4984178;28;20440;-81
2022/09/06 08:24:29;;;;;;;5.43;5.03;;;28.70;42.20;;;;;;4987306;28;20421;-79
2022/09/06 08:26:58;;;;;;;8.60;4.90;;;28.70;42.20;;;;;;4994853;28;20592;-81
2022/09/06 08:29:26;;;;;;;13.70;6.20;;;28.70;42.40;;;;;;4992024;28;20450;-80
2022/09/06 08:31:54;;;;;;;13.13;5.53;;;28.70;42.30;;;;;;4989852;28;20501;-81
2022/09/06 08:34:22;;;;;;;6.40;5.50;;;28.70;42.20;;;;;;4986485;28;20598;-80
2022/09/06 08:36:54;;;;;;;8.57;5.20;;;28.70;42.10;;;;;;4983442;28;20541;-82
2022/09/06 08:39:22;;;;;;;11.10;5.63;;;28.70;42.20;;;;;;4984016;28;20456;-80
2022/09/06 08:41:52;;;;;;;12.40;5.83;;;28.70;42.20;;;;;;4986909;28;20454;-81
2022/09/06 08:44:23;;;;;;;6.87;5.60;;;28.70;42.00;;;;;;4990255;28;20441;-81
2022/09/06 08:47:26;;;;;;;9.67;5.40;;;28.60;42.00;;;;;;5003014;28;20441;-81
2022/09/06 08:50:02;;;;;;;6.50;5.10;;;28.60;42.10;;;;;;5000236;28;20446;-80
2022/09/06 08:52:47;;;;;;;11.87;4.80;;;28.60;42.00;;;;;;5001639;28;20472;-80
2022/09/06 08:55:36;;;;;;;5.80;5.27;;;28.60;42.00;;;;;;5001412;28;20483;-81
2022/09/06 08:58:14;;;;;;;10.93;5.00;;;28.60;42.00;;;;;;4996674;28;20520;-79
2022/09/06 09:00:46;;;;;;;10.07;5.40;;;28.70;41.90;;;;;;4990696;28;20449;-79
2022/09/06 09:03:16;;;;;;;8.17;5.20;;;28.70;42.00;;;;;;4996354;28;20851;-81
2022/09/06 09:05:44;;;;;;;14.63;5.13;;;28.70;41.90;;;;;;4997034;28;20468;-81
2022/09/06 09:08:21;;;;;;;5.80;5.03;;;28.70;41.90;;;;;;4997842;28;20450;-80
2022/09/06 09:11:06;;;;;;;5.00;4.50;;;28.80;41.80;;;;;;4998236;28;20500;-81
2022/09/06 09:13:38;;;;;;;5.10;4.70;;;28.80;41.60;;;;;;5002897;28;20758;-81
2022/09/06 09:16:08;;;;;;;5.30;4.83;;;28.90;41.50;;;;;;5004747;28;20465;-82
2022/09/06 09:18:41;;;;;;;5.30;4.47;;;28.90;41.30;;;;;;5004592;28;20441;-82
2022/09/06 09:21:09;;;;;;;4.93;4.43;;;28.90;41.30;;;;;;5007709;28;20528;-82
2022/09/06 09:23:37;;;;;;;7.83;5.30;;;28.90;41.30;;;;;;5005914;28;20471;-82
2022/09/06 09:26:07;;;;;;;12.13;4.97;;;28.90;41.30;;;;;;5002613;28;20489;-82
2022/09/06 09:28:42;;;;;;;6.20;5.10;;;28.90;41.20;;;;;;5003528;28;20546;-82
2022/09/06 09:31:13;;;;;;;9.40;4.53;;;28.90;41.30;;;;;;5002779;28;20449;-83
2022/09/06 09:33:41;;;;;;;12.07;4.83;;;28.90;41.40;;;;;;5001998;28;20441;-82
2022/09/06 09:36:14;;;;;;;8.53;4.93;;;28.90;41.30;;;;;;5002113;28;20474;-81
2022/09/06 09:38:43;;;;;;;4.83;4.40;;;28.80;41.30;;;;;;5001679;28;20508;-83
2022/09/06 09:41:37;;;;;;;4.90;4.50;;;28.90;41.40;;;;;;5001785;28;20453;-82
2022/09/06 09:44:06;;;;;;;5.33;4.83;;;28.90;41.30;;;;;;5002271;28;20446;-82
2022/09/06 09:46:37;;;;;;;5.00;4.50;;;28.90;41.30;;;;;;5001225;28;20469;-83
2022/09/06 09:49:07;;;;;;;5.83;4.80;;;28.90;41.20;;;;;;5001921;28;20457;-83
2022/09/06 09:51:36;;;;;;;5.37;4.83;;;28.90;41.10;;;;;;5000299;28;20897;-84
2022/09/06 09:54:06;;;;;;;7.00;4.67;;;28.90;41.10;;;;;;5000043;28;20457;-82
2022/09/06 09:56:39;;;;;;;4.87;4.57;;;28.90;41.10;;;;;;4998351;28;20473;-82
2022/09/06 09:59:16;;;;;;;6.27;4.60;;;28.90;41.00;;;;;;4997485;28;20452;-82
2022/09/06 10:01:46;;;;;;;5.87;4.77;;;28.90;41.10;;;;;;4997148;28;20484;-83
2022/09/06 10:04:18;;;;;;;5.60;4.60;;;28.80;41.10;;;;;;4996502;28;20484;-82
2022/09/06 10:07:10;;;;;;;6.70;4.20;;;28.80;41.10;;;;;;4997083;28;20442;-82
2022/09/06 10:09:40;;;;;;;5.80;4.87;;;28.80;41.20;;;;;;4997451;28;20472;-82
2022/09/06 10:12:08;;;;;;;4.50;4.20;;;28.80;41.20;;;;;;4997339;28;20484;-81
2022/09/06 10:14:41;;;;;;;7.93;4.40;;;28.80;41.30;;;;;;4995508;28;20504;-81
2022/09/06 10:17:17;;;;;;;4.80;4.33;;;28.80;41.30;;;;;;4995087;28;20452;-82
2022/09/06 10:19:46;;;;;;;5.23;4.73;;;28.80;41.30;;;;;;4996232;28;20516;-82
2022/09/06 10:22:26;;;;;;;4.70;4.30;;;28.70;41.20;;;;;;4995297;28;20548;-84
2022/09/06 10:25:30;;;;;;;5.00;4.60;;;28.80;41.30;;;;;;4995441;28;20465;-82
2022/09/06 10:28:27;;;;;;;5.37;4.73;;;28.80;41.10;;;;;;4998086;28;20518;-83
2022/09/06 10:31:16;;;;;;;5.17;4.67;;;28.80;41.10;;;;;;4998653;28;20457;-83
2022/09/06 10:33:53;;;;;;;4.60;4.33;;;28.90;41.00;;;;;;4966662;28;20426;-83
2022/09/06 10:36:25;;;;;;;4.70;4.30;;;28.90;40.90;;;;;;4999250;28;20508;-83
2022/09/06 10:38:53;;;;;;;4.83;4.43;;;29.00;40.80;;;;;;4999176;28;20515;-83
2022/09/06 10:41:28;;;;;;;4.43;4.13;;;29.10;40.70;;;;;;4998474;28;20484;-83
2022/09/06 10:44:00;;;;;;;4.60;4.20;;;29.10;40.50;;;;;;4998399;28;20523;-83
2022/09/06 10:46:28;;;;;;;7.00;4.67;;;29.20;40.50;;;;;;4998838;28;20508;-84
2022/09/06 10:48:58;;;;;;;4.40;3.97;;;29.30;40.40;;;;;;4999302;28;20460;-82
2022/09/06 10:51:31;;;;;;;4.20;3.97;;;29.30;40.40;;;;;;5000626;28;20452;-83
2022/09/06 10:54:03;;;;;;;5.67;4.30;;;29.40;40.20;;;;;;4999225;28;20480;-82
2022/09/06 10:56:34;;;;;;;6.17;4.83;;;29.40;40.20;;;;;;5002052;28;20501;-83
2022/09/06 10:59:03;;;;;;;4.40;4.00;;;29.50;40.00;;;;;;5001861;28;20445;-84
2022/09/06 11:01:57;;;;;;;6.77;4.27;;;29.60;39.80;;;;;;5000582;28;20442;-84
2022/09/06 11:04:29;;;;;;;4.17;3.77;;;29.80;39.70;;;;;;5001872;28;20453;-83
2022/09/06 11:06:59;;;;;;;4.57;4.27;;;29.90;39.60;;;;;;5001583;28;20431;-83
2022/09/06 11:09:29;;;;;;;4.13;3.83;;;30.20;39.40;;;;;;5004277;28;20500;-84
2022/09/06 11:12:01;;;;;;;4.77;3.83;;;30.30;39.00;;;;;;5004358;28;20444;-83
2022/09/06 11:14:29;;;;;;;3.93;3.50;;;30.30;38.90;;;;;;5005698;28;20456;-83
2022/09/06 11:16:59;;;;;;;4.37;4.07;;;30.30;38.90;;;;;;5012019;28;20429;-86
2022/09/06 11:19:31;;;;;;;3.87;3.67;;;30.20;38.90;;;;;;5001253;28;20491;-82
2022/09/06 11:22:27;;;;;;;4.23;4.00;;;30.20;38.90;;;;;;5000136;28;20465;-83
2022/09/06 11:25:34;;;;;;;3.70;3.40;;;30.90;40.10;;;;;;5002099;28;20485;-83
2022/09/06 11:28:02;;;;;;;3.57;3.27;;;32.50;36.70;;;;;;4940069;28;20453;-84
2022/09/06 11:30:30;;;;;;;3.83;3.27;;;33.90;33.90;;;;;;5002557;28;20449;-82
2022/09/06 11:33:07;;;;;;;3.03;2.87;;;34.70;32.50;;;;;;5002384;28;20433;-82
2022/09/06 11:35:37;;;;;;;3.03;2.83;;;35.00;31.80;;;;;;5003976;28;20480;-83
2022/09/06 11:38:07;;;;;;;3.30;2.90;;;35.20;31.10;;;;;;5002269;28;20544;-83
2022/09/06 11:40:36;;;;;;;2.33;2.23;;;35.80;30.60;;;;;;5005964;28;20545;-81
2022/09/06 11:43:18;;;;;;;2.60;2.30;;;36.00;30.10;;;;;;5005634;28;20452;-82
2022/09/06 11:45:48;;;;;;;2.67;2.53;;;36.30;29.90;;;;;;5005519;28;20499;-82
2022/09/06 11:49:00;;;;;;;3.13;2.57;;;36.70;29.40;;;;;;5005008;28;20480;-83
2022/09/06 11:51:34;;;;;;;3.50;2.60;;;36.70;29.30;;;;;;5003430;28;20491;-82
2022/09/06 11:54:25;;;;;;;2.20;2.10;;;37.30;28.80;;;;;;5001918;28;20449;-82
2022/09/06 11:56:57;;;;;;;2.43;2.20;;;37.40;28.70;;;;;;5003055;28;20468;-82
2022/09/06 11:59:35;;;;;;;2.30;2.20;;;38.10;27.90;;;;;;5002109;28;20448;-82
2022/09/06 12:02:04;;;;;;;2.43;2.20;;;38.60;27.50;;;;;;5003328;28;20449;-82
2022/09/06 12:05:15;;;;;;;2.20;2.00;;;39.10;27.10;;;;;;5002419;28;20448;-83
2022/09/06 12:08:20;;;;;;;2.00;2.00;;;39.40;27.10;;;;;;5002120;28;20471;-83
2022/09/06 12:10:58;;;;;;;2.10;2.10;;;39.80;26.40;;;;;;5005234;28;20491;-80
2022/09/06 12:13:54;;;;;;;1.87;1.80;;;40.70;25.80;;;;;;5003717;28;20475;-81
2022/09/06 12:16:22;;;;;;;1.93;1.83;;;41.10;25.40;;;;;;5003550;28;20555;-82
2022/09/06 12:18:58;;;;;;;2.03;1.93;;;41.40;24.90;;;;;;5005465;28;20480;-82
2022/09/06 12:21:41;;;;;;;2.20;2.10;;;39.80;25.30;;;;;;5005666;28;20468;-81
2022/09/06 12:24:10;;;;;;;2.10;2.10;;;38.10;27.30;;;;;;5005934;28;20465;-82
2022/09/06 12:26:48;;;;;;;2.37;2.23;;;37.50;27.90;;;;;;5006680;28;20476;-82
2022/09/06 12:29:24;;;;;;;2.50;2.40;;;36.40;28.60;;;;;;5006933;28;20496;-83
2022/09/06 12:31:52;;;;;;;2.40;2.30;;;35.60;29.70;;;;;;5006049;28;20484;-82
2022/09/06 12:34:22;;;;;;;3.30;3.03;;;35.10;30.40;;;;;;5006705;28;20536;-82
2022/09/06 12:36:55;;;;;;;2.50;2.40;;;34.70;30.90;;;;;;5006713;28;20505;-82
2022/09/06 12:39:23;;;;;;;3.10;2.90;;;34.40;31.50;;;;;;5007060;28;20471;-84
2022/09/06 12:41:55;;;;;;;3.30;2.57;;;34.20;31.80;;;;;;5006404;28;20455;-83
2022/09/06 12:44:32;;;;;;;2.80;2.70;;;34.20;31.90;;;;;;5006429;28;20495;-82
2022/09/06 12:47:04;;;;;;;2.70;2.60;;;34.20;31.90;;;;;;5005368;28;20449;-82
2022/09/06 12:49:32;;;;;;;2.57;2.47;;;36.00;30.20;;;;;;5006772;28;20513;-82
2022/09/06 12:52:07;;;;;;;2.97;2.87;;;37.70;28.60;;;;;;5005226;28;20456;-82
2022/09/06 12:54:42;;;;;;;2.33;2.23;;;38.80;27.30;;;;;;5005169;28;20452;-81
2022/09/06 12:57:17;;;;;;;2.50;2.40;;;38.80;26.80;;;;;;5004338;28;20492;-83
2022/09/06 12:59:50;;;;;;;1.80;1.80;;;39.30;27.50;;;;;;5004761;28;20449;-82
2022/09/06 13:02:21;;;;;;;2.13;2.03;;;40.20;25.90;;;;;;5004638;28;20448;-82
2022/09/06 13:04:50;;;;;;;2.00;1.90;;;40.80;25.30;;;;;;5003158;28;20465;-80
2022/09/06 13:07:19;;;;;;;1.90;1.90;;;41.10;25.10;;;;;;5004374;28;20472;-81
2022/09/06 13:09:48;;;;;;;1.70;1.70;;;41.50;24.80;;;;;;5004505;28;20440;-82